createdAt,value
2017-10-27T00:00:13.733Z,79.77
2017-10-27T00:02:41.395Z,70.03
2017-10-27T00:05:08.966Z,74.40
2017-10-27T00:07:36.607Z,82.63
2017-10-27T00:10:04.205Z,73.27
2017-10-27T00:12:32.226Z,79.63
2017-10-27T00:15:00.574Z,66.13
2017-10-27T00:17:28.152Z,70.47
2017-10-27T00:19:56.522Z,82.87
2017-10-27T00:22:24.090Z,79.47
2017-10-27T00:24:51.833Z,85.93
2017-10-27T00:27:19.416Z,79.27
2017-10-27T00:29:48.051Z,83.70
2017-10-27T00:32:15.666Z,88.43
2017-10-27T00:34:44.010Z,86.57
2017-10-27T00:37:11.657Z,84.13
2017-10-27T00:39:39.222Z,88.50
2017-10-27T00:42:06.817Z,89.33
2017-10-27T00:44:35.148Z,84.90
2017-10-27T00:47:02.764Z,73.50
2017-10-27T00:49:31.101Z,66.97
2017-10-27T00:51:58.935Z,75.33
2017-10-27T00:54:26.505Z,69.37
2017-10-27T00:56:54.067Z,65.73
2017-10-27T00:59:21.658Z,58.93
2017-10-27T01:01:49.246Z,74.30
2017-10-27T01:04:17.639Z,66.17
2017-10-27T01:06:45.274Z,66.67
2017-10-27T01:09:13.626Z,61.80
2017-10-27T01:11:41.210Z,68.13
2017-10-27T01:14:09.852Z,56.90
2017-10-27T01:16:37.423Z,48.90
2017-10-27T01:19:04.990Z,56.37
2017-10-27T01:21:32.578Z,57.70
2017-10-27T01:24:00.910Z,55.77
2017-10-27T01:26:28.871Z,51.10
2017-10-27T01:28:56.454Z,51.00
2017-10-27T01:31:24.038Z,57.70
2017-10-27T01:33:53.110Z,54.43
2017-10-27T01:36:20.754Z,52.60
2017-10-27T01:38:48.313Z,55.67
2017-10-27T01:41:16.177Z,43.97
2017-10-27T01:43:43.790Z,50.83
2017-10-27T01:46:12.122Z,44.00
2017-10-27T01:48:39.732Z,43.60
2017-10-27T01:51:08.071Z,55.40
2017-10-27T01:53:35.707Z,46.43
2017-10-27T01:56:03.362Z,54.47
2017-10-27T01:58:31.295Z,42.70
2017-10-27T02:00:59.623Z,43.63
2017-10-27T02:03:27.262Z,42.07
2017-10-27T02:05:55.089Z,45.07
2017-10-27T02:08:23.472Z,47.67
2017-10-27T02:10:51.823Z,44.73
2017-10-27T02:13:19.483Z,40.93
2017-10-27T02:15:47.068Z,40.87
2017-10-27T02:18:15.491Z,48.17
2017-10-27T02:20:43.082Z,50.57
2017-10-27T02:23:10.646Z,47.23
2017-10-27T02:25:38.580Z,45.40
2017-10-27T02:28:06.184Z,44.87
2017-10-27T02:30:33.757Z,47.43
2017-10-27T02:33:02.106Z,44.43
2017-10-27T02:35:29.697Z,42.20
2017-10-27T02:37:58.074Z,46.67
2017-10-27T02:40:25.670Z,42.30
2017-10-27T02:42:53.515Z,43.80
2017-10-27T02:45:21.097Z,38.93
2017-10-27T02:47:48.722Z,44.17
2017-10-27T02:50:17.094Z,44.20
2017-10-27T02:52:45.435Z,45.40
2017-10-27T02:55:13.046Z,46.40
2017-10-27T02:57:40.669Z,45.60
2017-10-27T03:00:08.253Z,40.70
2017-10-27T03:02:36.594Z,44.73
2017-10-27T03:05:04.189Z,45.70
2017-10-27T03:07:32.523Z,53.93
2017-10-27T03:10:00.675Z,54.93
2017-10-27T03:12:28.246Z,50.77
2017-10-27T03:14:55.829Z,51.70
2017-10-27T03:17:23.464Z,46.10
2017-10-27T03:19:51.037Z,47.83
2017-10-27T03:22:19.397Z,52.33
2017-10-27T03:24:46.998Z,57.63
2017-10-27T03:27:15.042Z,51.10
2017-10-27T03:29:42.855Z,57.03
2017-10-27T03:32:11.193Z,62.47
2017-10-27T03:34:39.574Z,57.37
2017-10-27T03:37:07.142Z,63.30
2017-10-27T03:39:34.818Z,66.00
2017-10-27T03:42:03.154Z,68.90
2017-10-27T03:44:30.746Z,72.20
2017-10-27T03:46:58.330Z,66.30
2017-10-27T03:49:26.686Z,67.00
2017-10-27T03:51:54.258Z,75.10
2017-10-27T03:54:23.013Z,67.03
2017-10-27T03:56:50.579Z,60.60
2017-10-27T03:59:18.143Z,61.77
2017-10-27T04:01:45.758Z,68.13
2017-10-27T04:04:13.350Z,58.83
2017-10-27T04:06:40.964Z,60.33
2017-10-27T04:09:08.822Z,61.77
2017-10-27T04:11:37.553Z,67.00
2017-10-27T04:14:05.125Z,63.10
2017-10-27T04:16:32.698Z,55.87
2017-10-27T04:19:00.317Z,67.17
2017-10-27T04:21:27.894Z,65.50
2017-10-27T04:23:55.499Z,61.13
2017-10-27T04:26:23.843Z,58.43
2017-10-27T04:28:51.612Z,52.27
2017-10-27T04:31:19.178Z,63.07
2017-10-27T04:33:47.130Z,62.60
2017-10-27T04:36:14.719Z,46.43
2017-10-27T04:38:43.047Z,50.27
2017-10-27T04:41:10.657Z,46.30
2017-10-27T04:43:38.998Z,48.00
2017-10-27T04:46:07.400Z,49.07
2017-10-27T04:48:35.028Z,47.20
2017-10-27T04:51:02.891Z,44.13
2017-10-27T04:53:30.503Z,47.67
2017-10-27T04:55:59.121Z,45.60
2017-10-27T04:58:26.694Z,42.73
2017-10-27T05:00:54.270Z,42.13
2017-10-27T05:03:21.860Z,44.80
2017-10-27T05:05:50.202Z,40.37
2017-10-27T05:08:17.822Z,39.17
2017-10-27T05:10:45.594Z,40.77
2017-10-27T05:13:13.486Z,44.60
2017-10-27T05:15:41.062Z,36.37
2017-10-27T05:18:14.670Z,36.40
2017-10-27T05:20:47.769Z,30.70
2017-10-27T05:23:21.338Z,37.87
2017-10-27T05:25:48.918Z,39.33
2017-10-27T05:28:16.512Z,33.30
2017-10-27T05:30:44.125Z,32.27
2017-10-27T05:33:11.711Z,28.97
2017-10-27T05:35:40.116Z,25.60
2017-10-27T05:38:07.693Z,30.83
2017-10-27T05:40:35.839Z,27.30
2017-10-27T05:43:04.169Z,24.87
2017-10-27T05:45:31.729Z,31.00
2017-10-27T05:47:59.349Z,21.90
2017-10-27T05:50:26.906Z,25.03
2017-10-27T05:52:54.506Z,22.00
2017-10-27T05:55:22.093Z,25.20
2017-10-27T05:57:50.029Z,21.67
2017-10-27T06:00:17.612Z,20.53
2017-10-27T06:02:45.228Z,20.30
2017-10-27T06:05:12.855Z,27.20
2017-10-27T06:07:41.172Z,18.60
2017-10-27T06:10:08.778Z,16.77
2017-10-27T06:12:36.375Z,15.03
2017-10-27T06:15:04.081Z,15.17
2017-10-27T06:17:31.665Z,16.63
2017-10-27T06:19:59.265Z,15.97
2017-10-27T06:22:26.837Z,14.80
2017-10-27T06:24:54.795Z,14.00
2017-10-27T06:27:22.422Z,15.73
2017-10-27T06:29:50.795Z,16.37
2017-10-27T06:32:19.274Z,12.53
2017-10-27T06:34:47.625Z,19.70
2017-10-27T06:37:15.234Z,15.80
2017-10-27T06:39:42.827Z,11.87
2017-10-27T06:42:10.702Z,13.27
2017-10-27T06:44:38.286Z,11.60
2017-10-27T06:47:05.863Z,13.13
2017-10-27T06:49:34.306Z,16.90
2017-10-27T06:52:01.898Z,11.80
2017-10-27T06:54:29.544Z,18.00
2017-10-27T06:56:57.114Z,12.10
2017-10-27T06:59:25.053Z,12.03
2017-10-27T07:01:52.665Z,12.53
2017-10-27T07:04:21.036Z,10.43
2017-10-27T07:06:49.477Z,12.53
2017-10-27T07:09:17.047Z,15.50
2017-10-27T07:11:44.646Z,14.93
2017-10-27T07:14:12.228Z,9.93
2017-10-27T07:16:39.822Z,12.00
2017-10-27T07:19:07.398Z,15.87
2017-10-27T07:21:35.768Z,10.50
2017-10-27T07:24:03.370Z,13.50
2017-10-27T07:26:31.275Z,11.07
2017-10-27T07:29:01.185Z,13.87
2017-10-27T07:31:29.026Z,10.93
2017-10-27T07:33:56.610Z,11.50
2017-10-27T07:36:24.294Z,12.13
2017-10-27T07:38:51.891Z,12.63
2017-10-27T07:41:19.455Z,13.03
2017-10-27T07:43:47.358Z,9.23
2017-10-27T07:46:14.946Z,14.23
2017-10-27T07:48:42.519Z,8.73
2017-10-27T07:51:10.906Z,8.47
2017-10-27T07:53:39.353Z,12.07
2017-10-27T07:56:07.416Z,8.20
2017-10-27T07:58:34.983Z,9.50
2017-10-27T08:01:02.534Z,6.77
2017-10-27T08:03:30.134Z,7.43
2017-10-27T08:05:58.562Z,11.30
2017-10-27T08:08:26.151Z,8.33
2017-10-27T08:10:53.704Z,8.57
2017-10-27T08:13:21.555Z,11.00
2017-10-27T08:15:49.124Z,8.77
2017-10-27T08:18:16.712Z,5.53
2017-10-27T08:20:45.050Z,5.87
2017-10-27T08:23:12.625Z,9.00
2017-10-27T08:25:40.231Z,7.17
2017-10-27T08:28:08.583Z,4.83
2017-10-27T08:30:36.926Z,5.70
2017-10-27T08:33:04.489Z,6.73
2017-10-27T08:35:32.113Z,7.17
2017-10-27T08:37:59.925Z,5.87
2017-10-27T08:40:27.771Z,12.60
2017-10-27T08:42:55.343Z,8.30
2017-10-27T08:45:22.915Z,5.90
2017-10-27T08:47:50.489Z,4.07
2017-10-27T08:50:18.841Z,7.93
2017-10-27T08:52:46.433Z,6.43
2017-10-27T08:55:14.774Z,4.53
2017-10-27T08:57:42.624Z,5.87
2017-10-27T09:00:10.195Z,6.73
2017-10-27T09:02:37.739Z,5.73
2017-10-27T09:05:05.338Z,13.70
2017-10-27T09:07:32.914Z,5.93
2017-10-27T09:10:01.541Z,5.60
2017-10-27T09:12:29.170Z,8.73
2017-10-27T09:14:56.819Z,9.07
2017-10-27T09:17:25.194Z,8.50
2017-10-27T09:19:53.549Z,13.70
2017-10-27T09:22:21.189Z,7.23
2017-10-27T09:24:48.777Z,11.03
2017-10-27T09:27:17.470Z,7.67
2017-10-27T09:29:45.071Z,6.73
2017-10-27T09:32:12.658Z,10.90
2017-10-27T09:34:40.465Z,4.80
2017-10-27T09:37:08.800Z,5.17
2017-10-27T09:39:36.532Z,5.87
2017-10-27T09:42:04.176Z,5.37
2017-10-27T09:44:31.833Z,7.43
2017-10-27T09:46:59.394Z,4.37
2017-10-27T09:49:27.005Z,5.17
2017-10-27T09:51:54.597Z,7.07
2017-10-27T09:54:23.239Z,3.20
2017-10-27T09:56:50.812Z,9.90
2017-10-27T09:59:18.393Z,10.00
2017-10-27T10:01:46.757Z,4.83
2017-10-27T10:04:14.414Z,3.90
2017-10-27T10:06:42.018Z,6.03
2017-10-27T10:09:09.597Z,4.57
2017-10-27T10:11:37.449Z,4.17
2017-10-27T10:14:04.996Z,3.33
2017-10-27T10:16:33.390Z,9.80
2017-10-27T10:19:00.990Z,6.07
2017-10-27T10:21:28.632Z,8.50
2017-10-27T10:23:56.278Z,9.10
2017-10-27T10:26:23.849Z,5.70
2017-10-27T10:28:51.442Z,11.43
2017-10-27T10:31:18.994Z,2.30
2017-10-27T10:33:46.583Z,4.20
2017-10-27T10:36:14.922Z,5.90
2017-10-27T10:38:42.522Z,5.50
2017-10-27T10:41:10.866Z,5.60
2017-10-27T10:43:38.479Z,2.73
2017-10-27T10:46:06.066Z,9.70
2017-10-27T10:48:33.610Z,8.90
2017-10-27T10:51:01.270Z,3.80
2017-10-27T10:53:28.831Z,5.27
2017-10-27T10:55:56.725Z,3.20
2017-10-27T10:58:24.298Z,8.43
2017-10-27T11:00:51.877Z,3.63
2017-10-27T11:03:20.251Z,4.20
2017-10-27T11:05:47.817Z,3.63
2017-10-27T11:08:16.153Z,5.50
2017-10-27T11:10:43.763Z,5.20
2017-10-27T11:13:12.110Z,7.07
2017-10-27T11:18:20.315Z,3.97
2017-10-27T11:20:47.887Z,7.23
2017-10-27T11:23:15.496Z,7.80
2017-10-27T11:25:43.314Z,9.60
2017-10-27T11:28:11.178Z,7.60
2017-10-27T11:30:38.955Z,4.50
2017-10-27T11:33:06.533Z,5.10
2017-10-27T11:35:34.894Z,12.77
2017-10-27T11:38:02.454Z,5.73
2017-10-27T11:40:30.122Z,3.23
2017-10-27T11:42:58.525Z,4.70
2017-10-27T11:45:26.122Z,3.73
2017-10-27T11:47:53.710Z,4.67
2017-10-27T11:50:21.387Z,3.43
2017-10-27T11:52:48.981Z,2.43
2017-10-27T11:55:16.588Z,2.70
2017-10-27T11:57:44.190Z,3.70
2017-10-27T12:00:13.793Z,7.03
2017-10-27T12:02:41.373Z,2.40
2017-10-27T12:05:08.977Z,2.10
2017-10-27T12:07:36.549Z,4.63
2017-10-27T12:10:04.158Z,4.03
2017-10-27T12:12:31.744Z,6.37
2017-10-27T12:14:59.315Z,2.93
2017-10-27T12:17:28.633Z,6.30
2017-10-27T12:19:57.027Z,6.03
2017-10-27T12:22:24.647Z,3.00
2017-10-27T12:24:52.226Z,2.70
2017-10-27T12:27:20.886Z,5.23
2017-10-27T12:29:48.454Z,3.77
2017-10-27T12:32:16.146Z,4.70
2017-10-27T12:34:44.685Z,4.37
2017-10-27T12:37:12.294Z,4.63
2017-10-27T12:39:40.639Z,2.70
2017-10-27T12:42:08.247Z,3.10
2017-10-27T12:44:36.170Z,3.67
2017-10-27T12:47:03.777Z,5.07
2017-10-27T12:49:31.352Z,3.33
2017-10-27T12:51:59.290Z,3.43
2017-10-27T12:54:26.851Z,2.63
2017-10-27T12:56:54.782Z,6.50
2017-10-27T12:59:22.389Z,5.13
2017-10-27T13:01:49.996Z,13.47
2017-10-27T13:04:17.586Z,5.73
2017-10-27T13:06:45.926Z,6.10
2017-10-27T13:09:13.503Z,3.93
2017-10-27T13:11:41.227Z,5.13
2017-10-27T13:14:09.119Z,4.90
2017-10-27T13:16:36.678Z,4.40
2017-10-27T13:19:04.309Z,4.40
2017-10-27T13:21:31.947Z,3.23
2017-10-27T13:23:59.538Z,2.73
2017-10-27T13:26:27.384Z,6.60
2017-10-27T13:28:55.002Z,2.73
2017-10-27T13:31:22.571Z,3.70
2017-10-27T13:33:50.931Z,3.50
2017-10-27T13:36:18.524Z,6.47
2017-10-27T13:38:46.886Z,6.17
2017-10-27T13:41:15.262Z,5.23
2017-10-27T13:43:43.693Z,3.70
2017-10-27T13:46:11.298Z,5.50
2017-10-27T13:48:38.884Z,10.70
2017-10-27T13:51:06.543Z,2.70
2017-10-27T13:53:34.115Z,3.17
2017-10-27T13:56:01.708Z,7.20
2017-10-27T13:58:29.306Z,5.60
2017-10-27T14:00:57.713Z,7.13
2017-10-27T14:03:25.305Z,2.60
2017-10-27T14:05:52.930Z,2.77
2017-10-27T14:08:20.652Z,3.50
2017-10-27T14:10:48.426Z,2.93
2017-10-27T14:13:16.209Z,4.03
2017-10-27T14:15:43.850Z,7.50
2017-10-27T14:18:12.199Z,3.63
2017-10-27T14:20:39.906Z,2.07
2017-10-27T14:23:08.259Z,6.00
2017-10-27T14:25:35.869Z,3.33
2017-10-27T14:28:03.482Z,3.13
2017-10-27T14:30:31.299Z,5.97
2017-10-27T14:35:33.125Z,10.50
2017-10-27T14:38:01.556Z,5.13
2017-10-27T14:40:30.384Z,9.07
2017-10-27T14:45:32.396Z,4.30
2017-10-27T14:48:00.745Z,5.03
2017-10-27T14:50:29.207Z,6.93
2017-10-27T14:52:57.083Z,5.60
2017-10-27T14:55:24.700Z,8.53
2017-10-27T14:57:52.293Z,3.40
2017-10-27T15:00:19.926Z,18.73
2017-10-27T15:02:47.515Z,7.53
2017-10-27T15:05:15.149Z,6.90
2017-10-27T15:07:42.762Z,4.73
2017-10-27T15:10:14.062Z,3.10
2017-10-27T15:12:41.670Z,5.63
2017-10-27T15:15:10.354Z,4.37
2017-10-27T15:17:38.682Z,3.47
2017-10-27T15:20:06.265Z,10.83
2017-10-27T15:22:33.880Z,6.27
2017-10-27T15:25:01.454Z,3.27
2017-10-27T15:27:29.060Z,3.53
2017-10-27T15:29:56.645Z,6.07
2017-10-27T15:32:25.050Z,5.67
2017-10-27T15:34:52.773Z,6.00
2017-10-27T15:37:21.423Z,8.43
2017-10-27T15:39:49.012Z,6.73
2017-10-27T15:42:16.661Z,6.27
2017-10-27T15:44:44.327Z,6.00
2017-10-27T15:47:11.879Z,3.47
2017-10-27T15:49:39.481Z,7.90
2017-10-27T15:52:07.374Z,5.40
2017-10-27T15:54:34.986Z,5.47
2017-10-27T15:57:03.366Z,4.40
2017-10-27T15:59:31.266Z,2.83
2017-10-27T16:01:58.932Z,2.70
2017-10-27T16:04:26.582Z,3.80
2017-10-27T16:06:54.163Z,5.03
2017-10-27T16:09:21.798Z,5.47
2017-10-27T16:11:49.438Z,6.20
2017-10-27T16:14:17.923Z,5.20
2017-10-27T16:16:46.330Z,5.90
2017-10-27T16:19:14.555Z,3.07
2017-10-27T16:21:42.557Z,6.00
2017-10-27T16:24:10.898Z,5.70
2017-10-27T16:26:38.478Z,5.40
2017-10-27T16:29:06.863Z,3.70
2017-10-27T16:31:35.213Z,2.37
2017-10-27T16:34:02.807Z,6.83
2017-10-27T16:36:31.256Z,4.00
2017-10-27T16:38:58.859Z,8.60
2017-10-27T16:41:26.476Z,5.80
2017-10-27T16:43:55.295Z,7.17
2017-10-27T16:46:23.652Z,17.20
2017-10-27T16:48:51.248Z,8.57
2017-10-27T16:51:18.826Z,7.47
2017-10-27T16:53:46.427Z,6.27
2017-10-27T16:58:51.489Z,5.47
2017-10-27T17:01:19.116Z,4.97
2017-10-27T17:03:46.701Z,9.73
2017-10-27T17:06:14.635Z,13.20
2017-10-27T17:08:42.231Z,10.10
2017-10-27T17:11:09.860Z,9.43
2017-10-27T17:13:37.514Z,12.33
2017-10-27T17:16:05.125Z,19.77
2017-10-27T17:18:32.756Z,42.43
2017-10-27T17:21:00.368Z,47.37
2017-10-27T17:23:28.052Z,21.20
2017-10-27T17:25:55.630Z,15.77
2017-10-27T17:28:23.722Z,9.70
2017-10-27T17:30:51.318Z,12.57
2017-10-27T17:33:18.894Z,13.80
2017-10-27T17:35:47.606Z,8.73
2017-10-27T17:38:15.195Z,7.27
2017-10-27T17:40:43.954Z,12.07
2017-10-27T17:43:11.678Z,9.00
2017-10-27T17:45:39.307Z,9.60
2017-10-27T17:48:07.622Z,11.53
2017-10-27T17:50:35.575Z,11.93
2017-10-27T17:53:03.134Z,17.70
2017-10-27T17:55:30.717Z,21.60
2017-10-27T17:57:58.325Z,16.90
2017-10-27T18:00:25.911Z,12.17
2017-10-27T18:02:53.556Z,14.17
2017-10-27T18:05:21.972Z,15.23
2017-10-27T18:07:49.819Z,19.13
2017-10-27T18:10:17.449Z,11.80
2017-10-27T18:12:45.375Z,13.43
2017-10-27T18:15:12.992Z,24.00
2017-10-27T18:17:41.338Z,21.00
2017-10-27T18:20:08.964Z,14.07
2017-10-27T18:22:36.682Z,11.57
2017-10-27T18:25:05.046Z,19.73
2017-10-27T18:27:32.646Z,18.63
2017-10-27T18:30:00.284Z,15.37
2017-10-27T18:32:28.772Z,13.23
2017-10-27T18:34:57.428Z,15.80
2017-10-27T18:37:25.011Z,16.07
2017-10-27T18:39:53.365Z,13.57
2017-10-27T18:42:21.052Z,10.37
2017-10-27T18:44:48.683Z,12.57
2017-10-27T18:47:16.272Z,14.77
2017-10-27T18:49:44.733Z,15.73
2017-10-27T18:52:13.463Z,23.20
2017-10-27T18:54:41.035Z,18.00
2017-10-27T18:57:08.693Z,17.07
2017-10-27T18:59:36.399Z,18.30
2017-10-27T19:02:04.041Z,21.53
2017-10-27T19:04:32.501Z,22.43
2017-10-27T19:07:00.232Z,21.00
2017-10-27T19:09:31.546Z,19.90
2017-10-27T19:11:59.258Z,12.83
2017-10-27T19:14:26.873Z,14.87
2017-10-27T19:16:54.527Z,11.97
2017-10-27T19:19:22.148Z,15.67
2017-10-27T19:21:49.803Z,13.30
2017-10-27T19:24:17.407Z,21.03
2017-10-27T19:26:46.151Z,19.63
2017-10-27T19:29:13.752Z,21.07
2017-10-27T19:31:41.335Z,36.27
2017-10-27T19:34:08.960Z,33.53
2017-10-27T19:36:36.560Z,29.70
2017-10-27T19:39:05.100Z,35.47
2017-10-27T19:41:32.711Z,23.03
2017-10-27T19:44:00.350Z,17.60
2017-10-27T19:46:27.951Z,17.30
2017-10-27T19:48:55.582Z,18.80
2017-10-27T19:51:23.175Z,21.60
2017-10-27T19:53:51.106Z,23.20
2017-10-27T19:56:18.723Z,24.27
2017-10-27T19:58:46.461Z,33.03
2017-10-27T20:01:14.038Z,24.37
2017-10-27T20:03:42.608Z,22.30
2017-10-27T20:06:10.448Z,20.03
2017-10-27T20:08:38.836Z,14.67
2017-10-27T20:11:07.467Z,29.63
2017-10-27T20:13:35.081Z,19.50
2017-10-27T20:16:03.446Z,18.03
2017-10-27T20:18:31.837Z,31.80
2017-10-27T20:21:00.178Z,20.40
2017-10-27T20:23:27.807Z,22.07
2017-10-27T20:25:55.654Z,30.97
2017-10-27T20:28:23.337Z,23.90
2017-10-27T20:30:52.989Z,23.80
2017-10-27T20:33:20.702Z,19.13
2017-10-27T20:35:48.272Z,23.80
2017-10-27T20:38:16.134Z,22.17
2017-10-27T20:40:47.704Z,18.67
2017-10-27T20:43:15.643Z,21.80
2017-10-27T20:45:43.289Z,23.73
2017-10-27T20:48:10.877Z,26.60
2017-10-27T20:50:38.488Z,21.67
2017-10-27T20:53:06.874Z,25.37
2017-10-27T20:55:35.605Z,23.60
2017-10-27T20:58:03.252Z,23.47
2017-10-27T21:00:30.873Z,24.23
2017-10-27T21:02:58.554Z,26.37
2017-10-27T21:05:35.476Z,31.33
2017-10-27T21:08:03.836Z,22.50
2017-10-27T21:10:31.470Z,25.00
2017-10-27T21:12:59.139Z,19.83
2017-10-27T21:15:27.117Z,30.50
2017-10-27T21:17:54.825Z,27.20
2017-10-27T21:20:23.254Z,30.43
2017-10-27T21:22:51.378Z,29.40
2017-10-27T21:25:19.158Z,28.60
2017-10-27T21:27:47.525Z,22.47
2017-10-27T21:30:15.292Z,21.10
2017-10-27T21:32:42.928Z,30.87
2017-10-27T21:35:10.565Z,28.37
2017-10-27T21:37:38.237Z,24.87
2017-10-27T21:40:06.103Z,29.23
2017-10-27T21:42:33.749Z,32.77
2017-10-27T21:45:01.363Z,31.23
2017-10-27T21:47:28.994Z,30.73
2017-10-27T21:49:56.631Z,37.07
2017-10-27T21:52:24.505Z,31.60
2017-10-27T21:54:52.353Z,28.47
2017-10-27T21:57:20.287Z,35.70
2017-10-27T21:59:48.770Z,45.53
2017-10-27T22:02:17.233Z,52.57
2017-10-27T22:04:44.873Z,40.07
2017-10-27T22:07:12.463Z,39.83
2017-10-27T22:09:40.118Z,36.37
2017-10-27T22:12:07.756Z,37.83
2017-10-27T22:14:35.641Z,40.43
2017-10-27T22:17:03.227Z,32.63
2017-10-27T22:19:30.878Z,31.63
2017-10-27T22:21:58.506Z,34.97
2017-10-27T22:24:26.148Z,28.43
2017-10-27T22:26:53.793Z,26.60
2017-10-27T22:29:21.416Z,29.00
2017-10-27T22:31:49.052Z,28.90
2017-10-27T22:34:16.632Z,33.90
2017-10-27T22:36:45.006Z,27.53
2017-10-27T22:39:12.614Z,27.20
2017-10-27T22:41:40.660Z,30.67
2017-10-27T22:44:08.995Z,29.27
2017-10-27T22:46:36.581Z,38.70
2017-10-27T22:49:04.198Z,26.60
2017-10-27T22:51:31.786Z,24.93
2017-10-27T22:53:59.387Z,22.50
2017-10-27T22:56:27.133Z,25.57
2017-10-27T22:58:55.791Z,23.23
2017-10-27T23:01:23.390Z,22.20
2017-10-27T23:03:50.991Z,31.03
2017-10-27T23:06:18.599Z,22.67
2017-10-27T23:08:47.143Z,22.20
2017-10-27T23:11:14.753Z,27.53
2017-10-27T23:13:43.095Z,22.90
2017-10-27T23:16:10.978Z,26.27
2017-10-27T23:18:38.563Z,23.10
2017-10-27T23:21:06.147Z,19.30
2017-10-27T23:23:33.747Z,20.30
2017-10-27T23:26:01.339Z,22.93
2017-10-27T23:28:30.021Z,28.73
2017-10-27T23:30:57.607Z,21.27
2017-10-27T23:33:25.197Z,21.10
2017-10-27T23:35:52.795Z,23.30
2017-10-27T23:38:21.238Z,27.17
2017-10-27T23:40:48.817Z,26.73
2017-10-27T23:43:16.792Z,27.27
2017-10-27T23:45:44.385Z,26.00
2017-10-27T23:48:11.981Z,26.70
2017-10-27T23:50:39.611Z,33.27
2017-10-27T23:53:07.209Z,26.10
2017-10-27T23:55:35.591Z,35.43
2017-10-27T23:58:03.190Z,26.93
